Time;durP1;ratioP1;P1;durP2;ratioP2;P2;SDS_P1;SDS_P2;PMS_P1;PMS_P2;Temp;Humidity;BMP_temperature;BMP_pressure;BME280_temperature;BME280_humidity;BME280_pressure;Samples;Min_cycle;Max_cycle;Signal;HPM_P1;HPM_P2
2023/11/19 05:02:34;;;;;;;0.90;0.80;;;6.40;97.30;;;;;;4967552;23;20503;-90
2023/11/19 05:05:01;;;;;;;0.90;0.80;;;6.50;97.30;;;;;;4878507;29;20445;-89
2023/11/19 05:07:26;;;;;;;0.80;0.70;;;6.50;97.30;;;;;;4882318;29;20433;-90
2023/11/19 05:09:52;;;;;;;0.90;0.80;;;6.50;97.30;;;;;;4899160;29;20417;-90
2023/11/19 05:12:17;;;;;;;1.00;0.90;;;6.50;97.30;;;;;;4900882;29;20201;-92
2023/11/19 05:14:49;;;;;;;0.90;0.80;;;6.50;97.30;;;;;;4889426;29;20273;-92
2023/11/19 05:17:14;;;;;;;0.90;0.80;;;6.60;97.30;;;;;;4879171;29;20209;-91
2023/11/19 05:19:40;;;;;;;0.90;0.80;;;6.60;97.30;;;;;;4902989;29;20431;-91
2023/11/19 05:22:07;;;;;;;0.90;0.80;;;6.60;97.30;;;;;;4908456;29;20205;-92
2023/11/19 05:24:33;;;;;;;0.90;0.80;;;6.60;97.30;;;;;;4889182;29;20185;-91
2023/11/19 05:26:58;;;;;;;0.90;0.80;;;6.60;97.30;;;;;;4895015;29;20495;-92
2023/11/19 05:29:24;;;;;;;0.80;0.70;;;6.70;97.30;;;;;;4885972;29;20274;-91
2023/11/19 05:31:49;;;;;;;0.90;0.80;;;6.70;97.30;;;;;;4887743;29;20245;-91
2023/11/19 05:34:15;;;;;;;0.97;0.87;;;6.70;97.30;;;;;;4885959;29;20603;-91
2023/11/19 05:36:40;;;;;;;0.90;0.80;;;6.70;97.30;;;;;;4887229;29;20655;-91
2023/11/19 05:39:06;;;;;;;0.90;0.80;;;6.70;97.30;;;;;;4886552;29;20405;-91
2023/11/19 05:41:32;;;;;;;0.80;0.70;;;6.80;97.30;;;;;;4886182;29;20205;-91
2023/11/19 05:43:57;;;;;;;1.00;0.90;;;6.80;97.30;;;;;;4887592;29;20552;-92
2023/11/19 05:46:23;;;;;;;1.80;1.00;;;6.80;97.30;;;;;;4885743;29;20181;-91
2023/11/19 05:48:48;;;;;;;0.90;0.80;;;6.90;97.30;;;;;;4900474;29;20188;-90
2023/11/19 05:51:17;;;;;;;0.90;0.80;;;6.90;97.30;;;;;;4885915;29;20440;-89
2023/11/19 05:53:42;;;;;;;1.00;0.90;;;6.90;97.30;;;;;;4901362;29;20706;-87
2023/11/19 05:56:09;;;;;;;1.10;1.00;;;6.90;97.30;;;;;;4884242;29;20421;-88
2023/11/19 05:58:35;;;;;;;0.90;0.80;;;6.90;97.30;;;;;;4890888;29;20215;-91
2023/11/19 06:01:02;;;;;;;0.90;0.80;;;7.00;97.30;;;;;;4883640;29;20484;-91
2023/11/19 06:03:28;;;;;;;0.90;0.80;;;6.90;97.30;;;;;;4897630;29;20950;-90
2023/11/19 06:05:56;;;;;;;1.00;0.90;;;7.00;97.30;;;;;;4882977;29;20417;-89
2023/11/19 06:08:22;;;;;;;0.90;0.80;;;7.00;97.30;;;;;;4885437;29;20216;-88
2023/11/19 06:10:49;;;;;;;1.17;1.07;;;7.10;97.30;;;;;;4895439;29;20871;-91
2023/11/19 06:13:15;;;;;;;1.00;0.90;;;7.10;97.30;;;;;;4889422;29;20264;-90
2023/11/19 06:15:44;;;;;;;0.90;0.80;;;7.10;97.30;;;;;;4886689;29;20513;-89
2023/11/19 06:18:12;;;;;;;0.90;0.80;;;7.10;97.30;;;;;;4884464;29;20264;-89
2023/11/19 06:20:37;;;;;;;0.90;0.80;;;7.10;97.30;;;;;;4886794;29;21181;-89
2023/11/19 06:23:03;;;;;;;0.90;0.80;;;7.20;97.30;;;;;;4903100;29;20457;-88
2023/11/19 06:25:29;;;;;;;0.90;0.80;;;7.20;97.30;;;;;;4901819;29;20664;-89
2023/11/19 06:27:54;;;;;;;0.90;0.80;;;7.20;97.30;;;;;;4885277;29;20185;-90
2023/11/19 06:30:22;;;;;;;0.90;0.80;;;7.20;97.30;;;;;;4884998;29;20582;-88
2023/11/19 06:32:48;;;;;;;0.90;0.80;;;7.30;97.30;;;;;;4892610;29;20727;-89
2023/11/19 06:35:14;;;;;;;0.90;0.80;;;7.30;97.30;;;;;;4884893;29;20441;-89
2023/11/19 06:37:40;;;;;;;0.90;0.80;;;7.30;97.30;;;;;;4890023;29;20212;-90
2023/11/19 06:40:06;;;;;;;0.90;0.80;;;7.40;97.30;;;;;;4885875;29;20185;-91
2023/11/19 06:42:32;;;;;;;0.90;0.80;;;7.40;97.30;;;;;;4907416;29;20433;-89
2023/11/19 06:44:58;;;;;;;1.17;1.07;;;7.50;97.30;;;;;;4890456;29;20424;-89
2023/11/19 06:47:27;;;;;;;0.80;0.70;;;7.50;97.30;;;;;;4884905;29;20493;-91
2023/11/19 06:49:53;;;;;;;0.90;0.80;;;7.50;97.30;;;;;;4884875;29;20184;-90
2023/11/19 06:52:19;;;;;;;0.90;0.80;;;7.50;97.30;;;;;;4884782;29;20504;-90
2023/11/19 06:54:45;;;;;;;1.20;1.10;;;7.50;97.30;;;;;;4897591;29;20963;-91
2023/11/19 06:57:11;;;;;;;2.57;0.93;;;7.50;97.30;;;;;;4884525;29;20244;-88
2023/11/19 06:59:37;;;;;;;1.10;1.00;;;7.40;97.30;;;;;;4897234;29;20173;-86
2023/11/19 07:02:04;;;;;;;0.83;0.73;;;7.50;97.30;;;;;;4889741;29;20472;-90
2023/11/19 07:04:30;;;;;;;0.93;0.83;;;7.40;97.30;;;;;;4884695;29;20284;-90
2023/11/19 07:06:55;;;;;;;1.00;0.90;;;7.40;97.30;;;;;;4901039;29;20511;-90
2023/11/19 07:09:21;;;;;;;1.57;1.30;;;7.50;97.30;;;;;;4885708;29;20298;-90
2023/11/19 07:11:46;;;;;;;1.00;0.90;;;7.50;97.30;;;;;;4885594;29;20205;-91
2023/11/19 07:14:12;;;;;;;1.40;1.10;;;7.50;97.30;;;;;;4879603;29;20607;-89
2023/11/19 07:16:38;;;;;;;1.00;0.90;;;7.50;97.30;;;;;;4886662;29;20284;-89
2023/11/19 07:19:05;;;;;;;1.00;0.90;;;7.60;97.30;;;;;;4889674;29;20189;-89
2023/11/19 07:21:30;;;;;;;1.10;1.00;;;7.70;97.30;;;;;;4884265;29;20547;-90
2023/11/19 07:23:56;;;;;;;1.00;0.90;;;7.70;97.30;;;;;;4886493;29;20433;-89
2023/11/19 07:26:22;;;;;;;0.93;0.90;;;7.70;97.30;;;;;;4884381;29;20185;-89
2023/11/19 07:28:51;;;;;;;1.00;0.90;;;7.80;97.30;;;;;;4894060;29;20227;-91
2023/11/19 07:31:20;;;;;;;0.80;0.70;;;7.90;97.30;;;;;;4894855;29;20453;-91
2023/11/19 07:33:47;;;;;;;1.00;0.90;;;8.00;97.30;;;;;;4900971;29;21007;-91
2023/11/19 07:36:13;;;;;;;0.90;0.80;;;8.10;97.30;;;;;;4900891;29;20449;-90
2023/11/19 07:38:39;;;;;;;1.00;0.90;;;8.20;97.30;;;;;;4889064;29;20469;-89
2023/11/19 07:41:12;;;;;;;2.23;1.23;;;8.20;97.30;;;;;;4885178;29;20447;-90
2023/11/19 07:43:39;;;;;;;0.90;0.80;;;8.30;97.30;;;;;;4887811;29;20281;-90
2023/11/19 07:46:06;;;;;;;0.90;0.80;;;8.40;97.30;;;;;;4894638;29;20431;-89
2023/11/19 07:48:34;;;;;;;0.83;0.73;;;8.40;97.30;;;;;;4887244;29;20425;-91
2023/11/19 07:51:00;;;;;;;1.20;1.10;;;8.50;97.30;;;;;;4885679;29;20511;-90
2023/11/19 07:53:25;;;;;;;1.47;1.40;;;8.50;97.30;;;;;;4883942;29;20932;-88
2023/11/19 07:55:51;;;;;;;1.17;1.13;;;8.60;97.30;;;;;;4886375;29;20204;-91
2023/11/19 07:58:16;;;;;;;0.90;0.80;;;8.60;97.30;;;;;;4889070;29;20204;-90
2023/11/19 08:00:42;;;;;;;1.23;1.13;;;8.70;97.30;;;;;;4902226;29;20640;-91
2023/11/19 08:03:08;;;;;;;0.90;0.80;;;8.80;97.30;;;;;;4884794;29;20216;-91
2023/11/19 08:05:33;;;;;;;0.90;0.80;;;8.80;97.30;;;;;;4901454;29;20708;-92
2023/11/19 08:07:59;;;;;;;0.83;0.73;;;8.80;97.30;;;;;;4885831;29;20235;-91
2023/11/19 08:10:24;;;;;;;0.90;0.80;;;8.80;97.30;;;;;;4889057;29;20564;-91
2023/11/19 08:12:50;;;;;;;0.90;0.80;;;8.90;97.30;;;;;;4888747;29;20188;-92
2023/11/19 08:15:16;;;;;;;1.10;1.00;;;8.90;97.30;;;;;;4901074;29;20181;-91
2023/11/19 08:17:42;;;;;;;0.80;0.70;;;8.90;97.30;;;;;;4901440;29;20228;-90
2023/11/19 08:20:11;;;;;;;0.90;0.80;;;8.90;97.30;;;;;;4885639;29;20203;-90
2023/11/19 08:22:37;;;;;;;1.10;1.00;;;9.00;97.30;;;;;;4894581;29;20449;-90
2023/11/19 08:25:05;;;;;;;3.20;1.30;;;9.00;97.30;;;;;;4883688;29;20425;-91
2023/11/19 08:27:30;;;;;;;1.00;0.90;;;9.00;97.30;;;;;;4887057;29;20433;-91
2023/11/19 08:29:56;;;;;;;1.10;1.00;;;9.10;97.30;;;;;;4884737;29;20983;-91
2023/11/19 08:32:26;;;;;;;1.00;0.90;;;9.10;97.30;;;;;;4884096;29;20680;-90
2023/11/19 08:34:52;;;;;;;1.00;0.90;;;9.00;97.30;;;;;;4883473;29;21011;-90
2023/11/19 08:37:23;;;;;;;0.90;0.80;;;9.10;97.30;;;;;;4878755;29;20473;-91
2023/11/19 08:39:49;;;;;;;2.50;2.10;;;9.10;97.30;;;;;;4880993;29;20213;-90
2023/11/19 08:42:15;;;;;;;1.20;1.10;;;9.10;97.30;;;;;;4888449;29;20464;-90
2023/11/19 08:44:46;;;;;;;1.57;1.47;;;9.20;97.30;;;;;;4877013;29;20434;-91
2023/11/19 08:47:12;;;;;;;0.80;0.80;;;9.20;97.30;;;;;;4878551;29;20828;-91
2023/11/19 08:49:40;;;;;;;1.00;0.90;;;9.20;97.30;;;;;;4883437;29;20445;-91
2023/11/19 08:52:10;;;;;;;1.30;1.20;;;9.30;97.30;;;;;;4895291;29;20454;-91
2023/11/19 08:54:36;;;;;;;1.10;1.00;;;9.40;97.30;;;;;;4878526;29;20433;-91
2023/11/19 08:57:02;;;;;;;1.20;1.10;;;9.50;97.30;;;;;;4882341;29;20488;-91
2023/11/19 08:59:28;;;;;;;1.30;1.23;;;9.50;97.30;;;;;;4885332;29;20925;-91
2023/11/19 09:01:54;;;;;;;1.00;0.90;;;9.60;97.30;;;;;;4892169;29;20485;-91
2023/11/19 09:04:22;;;;;;;1.00;0.90;;;9.60;97.30;;;;;;4884426;29;20815;-91
2023/11/19 09:06:48;;;;;;;1.20;1.10;;;9.60;97.30;;;;;;4895392;29;20185;-92
2023/11/19 09:09:13;;;;;;;0.90;0.83;;;9.70;97.30;;;;;;4878200;29;20429;-89
2023/11/19 09:11:39;;;;;;;1.43;1.00;;;9.70;97.30;;;;;;4898890;29;20445;-91
2023/11/19 09:14:05;;;;;;;1.13;1.03;;;9.80;97.30;;;;;;4879377;29;20210;-91
2023/11/19 09:16:30;;;;;;;1.67;1.40;;;9.80;97.30;;;;;;4887862;29;20576;-90
2023/11/19 09:18:57;;;;;;;1.00;0.90;;;9.80;97.30;;;;;;4883377;29;20224;-89
2023/11/19 09:21:23;;;;;;;1.33;1.23;;;9.80;97.30;;;;;;4893638;29;20209;-91
2023/11/19 09:23:49;;;;;;;1.00;0.90;;;9.80;97.30;;;;;;4880751;29;20453;-91
2023/11/19 09:26:15;;;;;;;1.10;1.00;;;9.90;97.30;;;;;;4895005;29;20216;-91
2023/11/19 09:28:40;;;;;;;0.97;0.87;;;10.00;97.30;;;;;;4894637;29;20735;-91
2023/11/19 09:31:16;;;;;;;0.90;0.80;;;10.10;97.30;;;;;;4881900;29;20627;-91
2023/11/19 09:33:42;;;;;;;2.50;0.97;;;10.20;97.30;;;;;;4880673;29;20189;-91
2023/11/19 09:36:08;;;;;;;2.03;1.90;;;10.30;97.30;;;;;;4894793;29;20473;-89
2023/11/19 09:38:37;;;;;;;1.50;1.40;;;10.20;97.30;;;;;;4885267;29;20648;-90
2023/11/19 09:41:08;;;;;;;1.30;1.20;;;10.20;97.30;;;;;;4894411;29;20453;-90
2023/11/19 09:43:33;;;;;;;1.10;1.00;;;10.20;97.30;;;;;;4882613;29;20481;-91
2023/11/19 09:46:10;;;;;;;0.97;0.87;;;10.20;97.30;;;;;;4881074;29;20904;-92
2023/11/19 09:48:40;;;;;;;1.73;1.37;;;10.20;97.30;;;;;;4895702;29;20188;-91
2023/11/19 09:51:06;;;;;;;0.90;0.80;;;10.20;97.30;;;;;;4881775;29;20972;-92
2023/11/19 09:53:33;;;;;;;1.23;1.13;;;10.20;97.30;;;;;;4882539;29;20852;-91
2023/11/19 09:56:03;;;;;;;1.57;1.47;;;10.20;97.30;;;;;;4882741;29;20432;-91
2023/11/19 09:58:30;;;;;;;1.10;1.00;;;10.30;97.30;;;;;;4881073;29;20476;-91
2023/11/19 10:00:55;;;;;;;1.23;1.00;;;10.30;97.30;;;;;;4878092;29;20465;-92
2023/11/19 10:03:22;;;;;;;1.00;0.90;;;10.30;97.30;;;;;;4897937;29;20862;-90
2023/11/19 10:05:48;;;;;;;2.20;1.20;;;10.30;97.30;;;;;;4880761;29;20209;-91
2023/11/19 10:08:14;;;;;;;0.90;0.80;;;10.30;97.30;;;;;;4897551;29;20995;-88
2023/11/19 10:10:39;;;;;;;1.10;1.00;;;10.30;97.30;;;;;;4880815;29;20711;-91
2023/11/19 10:13:06;;;;;;;0.90;0.80;;;10.30;97.30;;;;;;4897810;29;20192;-91
2023/11/19 10:15:36;;;;;;;0.90;0.80;;;10.30;97.30;;;;;;4902639;29;20719;-90
2023/11/19 10:18:04;;;;;;;1.13;1.00;;;10.30;97.30;;;;;;4883817;29;20541;-89
2023/11/19 10:20:35;;;;;;;1.00;0.90;;;10.30;97.30;;;;;;4889842;29;20932;-91
2023/11/19 10:23:01;;;;;;;1.10;1.00;;;10.40;97.30;;;;;;4884153;29;20456;-91
2023/11/19 10:25:28;;;;;;;13.43;1.43;;;10.40;97.30;;;;;;4885053;29;20940;-92
2023/11/19 10:27:55;;;;;;;1.73;1.63;;;10.40;97.30;;;;;;4880456;29;20668;-90
2023/11/19 10:30:26;;;;;;;1.23;1.13;;;10.40;97.30;;;;;;4880327;29;20793;-90
2023/11/19 10:33:05;;;;;;;6.20;4.13;;;10.50;97.30;;;;;;4880288;29;20433;-91
2023/11/19 10:35:31;;;;;;;1.80;1.60;;;10.50;97.30;;;;;;4896372;29;20433;-91
2023/11/19 10:37:59;;;;;;;9.80;1.97;;;10.70;97.30;;;;;;4896982;29;20481;-90
2023/11/19 10:40:38;;;;;;;1.30;1.20;;;11.00;97.30;;;;;;4883364;29;20440;-91
2023/11/19 10:43:04;;;;;;;1.10;1.00;;;11.50;97.30;;;;;;4878295;29;20421;-91
2023/11/19 10:45:29;;;;;;;0.97;0.87;;;11.80;97.30;;;;;;4888447;29;20426;-90
2023/11/19 10:47:56;;;;;;;1.43;1.33;;;12.10;97.30;;;;;;4900453;29;20196;-90
2023/11/19 10:50:23;;;;;;;1.00;0.90;;;12.40;97.30;;;;;;4883687;29;20715;-91
2023/11/19 10:52:54;;;;;;;1.43;1.23;;;12.60;97.30;;;;;;4883534;29;20963;-90
2023/11/19 10:55:26;;;;;;;1.57;1.47;;;12.70;97.30;;;;;;4883464;29;20963;-90
2023/11/19 10:57:51;;;;;;;1.20;1.03;;;12.70;97.30;;;;;;4883348;29;20577;-91
2023/11/19 11:00:20;;;;;;;3.93;2.27;;;12.70;97.30;;;;;;4883365;29;20524;-90
2023/11/19 11:02:50;;;;;;;1.40;1.30;;;12.60;97.30;;;;;;4879653;29;20201;-91
2023/11/19 11:05:17;;;;;;;1.73;1.63;;;12.60;97.30;;;;;;4895899;29;20425;-91
2023/11/19 11:07:44;;;;;;;1.20;1.10;;;12.70;97.30;;;;;;4883282;29;20886;-91
2023/11/19 11:10:12;;;;;;;1.80;1.33;;;12.80;97.30;;;;;;4895917;29;20521;-90
2023/11/19 11:12:41;;;;;;;1.10;1.00;;;12.70;97.30;;;;;;4878901;29;20994;-88
2023/11/19 11:15:08;;;;;;;2.20;1.67;;;12.40;97.30;;;;;;4881450;29;21020;-91
2023/11/19 11:17:34;;;;;;;0.90;0.80;;;12.00;97.30;;;;;;4888454;29;20991;-90
2023/11/19 11:19:59;;;;;;;1.00;0.90;;;11.60;97.30;;;;;;4900072;29;20485;-89
2023/11/19 11:22:30;;;;;;;1.20;1.10;;;11.30;97.30;;;;;;4883388;29;20828;-91
2023/11/19 11:25:27;;;;;;;0.90;0.80;;;11.00;97.30;;;;;;4880318;29;20762;-91
2023/11/19 11:28:14;;;;;;;1.53;1.43;;;10.80;97.30;;;;;;4878902;29;20437;-90
2023/11/19 11:30:42;;;;;;;9.60;1.47;;;10.70;97.30;;;;;;4897031;29;20544;-91
2023/11/19 11:33:23;;;;;;;1.23;1.13;;;10.80;97.30;;;;;;4879374;29;21028;-90
2023/11/19 11:36:02;;;;;;;1.77;1.67;;;10.80;97.30;;;;;;4896150;29;20945;-91
2023/11/19 11:38:28;;;;;;;1.30;1.20;;;10.90;97.30;;;;;;4879799;29;20996;-90
2023/11/19 11:41:24;;;;;;;4.97;1.10;;;10.90;97.30;;;;;;4879320;29;20516;-92
2023/11/19 11:43:51;;;;;;;1.00;0.90;;;11.00;97.30;;;;;;4891625;29;20429;-92
2023/11/19 11:46:31;;;;;;;0.90;0.80;;;11.10;97.30;;;;;;4879387;29;20437;-91
2023/11/19 11:49:00;;;;;;;1.00;0.90;;;11.10;97.30;;;;;;4879218;29;20480;-91
2023/11/19 11:51:55;;;;;;;1.20;1.10;;;11.10;97.30;;;;;;4894556;29;20980;-91
2023/11/19 11:54:20;;;;;;;3.27;1.50;;;11.10;97.30;;;;;;4877834;29;20661;-91
2023/11/19 11:57:11;;;;;;;14.67;1.20;;;11.00;97.30;;;;;;4878873;29;20442;-90
2023/11/19 11:59:44;;;;;;;1.63;1.53;;;11.00;97.30;;;;;;4876916;29;20189;-91
2023/11/19 12:02:21;;;;;;;1.63;1.53;;;11.00;97.30;;;;;;4885110;29;20469;-90
2023/11/19 12:04:49;;;;;;;1.00;0.90;;;11.00;97.30;;;;;;4894690;29;20864;-91
2023/11/19 12:07:25;;;;;;;1.00;0.90;;;11.30;97.30;;;;;;4896030;29;20425;-91
2023/11/19 12:09:53;;;;;;;1.10;1.00;;;11.80;97.30;;;;;;4894590;29;20471;-91
2023/11/19 12:12:28;;;;;;;1.30;1.20;;;12.20;97.30;;;;;;4879005;29;20528;-91
2023/11/19 12:15:00;;;;;;;1.00;0.90;;;12.60;97.30;;;;;;4878825;29;20465;-92
2023/11/19 12:17:34;;;;;;;1.00;0.90;;;13.00;97.30;;;;;;4883171;29;20560;-90
2023/11/19 12:20:01;;;;;;;1.07;0.97;;;13.30;97.30;;;;;;4885219;29;20453;-91
2023/11/19 12:22:27;;;;;;;0.90;0.90;;;13.50;97.30;;;;;;4887916;29;20442;-92
2023/11/19 12:24:56;;;;;;;1.50;1.17;;;13.80;97.30;;;;;;4886271;29;20473;-90
2023/11/19 12:27:22;;;;;;;1.43;1.33;;;14.00;97.30;;;;;;4879313;29;20200;-91
2023/11/19 12:29:48;;;;;;;1.27;1.17;;;14.20;97.30;;;;;;4884916;29;20477;-90
2023/11/19 12:32:13;;;;;;;;;;;14.20;97.30;;;;;;4882371;29;20426;-91
2023/11/19 12:34:39;;;;;;;1.33;1.33;;;14.00;97.30;;;;;;4878506;29;19998;-91
2023/11/19 12:37:05;;;;;;;6.00;2.23;;;13.70;97.30;;;;;;4895325;29;20262;-91
2023/11/19 12:39:31;;;;;;;2.90;0.93;;;13.50;97.30;;;;;;4881794;29;20185;-90
2023/11/19 12:41:59;;;;;;;1.00;0.90;;;13.40;97.30;;;;;;4878586;29;20730;-91
2023/11/19 12:44:25;;;;;;;5.40;2.43;;;13.30;97.30;;;;;;4878295;29;20429;-91
2023/11/19 12:47:07;;;;;;;1.07;1.00;;;13.40;97.30;;;;;;4895405;29;20437;-91
2023/11/19 12:49:35;;;;;;;0.93;0.83;;;13.60;97.30;;;;;;4875749;29;20425;-91
2023/11/19 12:52:01;;;;;;;3.87;2.17;;;13.40;97.30;;;;;;4884995;29;20445;-91
2023/11/19 12:54:36;;;;;;;1.50;1.40;;;13.50;97.30;;;;;;4882962;29;20417;-90
2023/11/19 12:57:02;;;;;;;1.00;0.90;;;13.40;97.30;;;;;;4879406;29;20219;-90
2023/11/19 12:59:28;;;;;;;1.60;1.50;;;13.30;97.30;;;;;;4895278;29;20418;-92
2023/11/19 13:01:55;;;;;;;1.30;1.20;;;13.10;97.30;;;;;;4885944;29;20496;-91
2023/11/19 13:04:20;;;;;;;1.00;0.90;;;13.00;97.30;;;;;;4895247;29;20229;-91
2023/11/19 13:06:49;;;;;;;7.53;2.27;;;12.90;97.30;;;;;;4898561;29;20429;-92
2023/11/19 13:09:24;;;;;;;1.43;1.10;;;12.80;97.30;;;;;;4880427;29;20180;-91
2023/11/19 13:11:49;;;;;;;2.93;2.07;;;12.70;97.30;;;;;;4883795;29;20457;-91
2023/11/19 13:14:15;;;;;;;4.40;1.43;;;12.70;97.30;;;;;;4881044;29;20432;-91
2023/11/19 13:16:42;;;;;;;1.10;1.00;;;12.60;97.30;;;;;;4883031;29;20182;-90
2023/11/19 13:19:08;;;;;;;2.43;2.10;;;12.60;97.30;;;;;;4878333;29;20342;-90
2023/11/19 13:21:34;;;;;;;0.90;0.80;;;12.60;97.30;;;;;;4894847;29;20445;-91
2023/11/19 13:23:59;;;;;;;1.23;1.17;;;12.60;97.30;;;;;;4878150;29;20470;-91
2023/11/19 13:26:25;;;;;;;1.07;1.03;;;12.70;97.30;;;;;;4884496;29;20623;-91
2023/11/19 13:28:51;;;;;;;1.63;1.00;;;12.80;97.30;;;;;;4903636;29;20184;-90
2023/11/19 13:31:17;;;;;;;7.60;1.30;;;13.30;97.30;;;;;;4897612;29;20204;-90
2023/11/19 13:33:42;;;;;;;8.50;3.00;;;13.80;97.30;;;;;;4903227;29;20326;-91
2023/11/19 13:36:09;;;;;;;11.10;3.27;;;14.00;97.30;;;;;;4888635;29;20189;-90
2023/11/19 13:38:35;;;;;;;1.53;1.43;;;13.90;97.30;;;;;;4901873;29;20197;-90
2023/11/19 13:41:01;;;;;;;4.23;2.07;;;13.80;97.30;;;;;;4884742;29;20449;-90
2023/11/19 13:43:30;;;;;;;1.00;0.93;;;13.60;97.30;;;;;;4889375;29;20426;-91
2023/11/19 13:45:56;;;;;;;1.20;1.10;;;13.70;97.30;;;;;;4883061;29;20425;-90
2023/11/19 13:48:22;;;;;;;6.63;1.60;;;13.60;97.30;;;;;;4888387;29;20441;-91
2023/11/19 13:50:47;;;;;;;1.30;1.20;;;13.40;97.30;;;;;;4890209;29;20213;-90
2023/11/19 13:53:13;;;;;;;1.20;1.10;;;13.10;97.30;;;;;;4885846;29;20530;-90
2023/11/19 13:55:38;;;;;;;1.23;1.13;;;13.00;97.30;;;;;;4882939;29;20245;-90
2023/11/19 13:58:04;;;;;;;1.10;1.00;;;13.10;97.30;;;;;;4886084;29;20220;-91
2023/11/19 14:00:29;;;;;;;1.47;1.37;;;13.00;97.30;;;;;;4899259;29;20193;-90
2023/11/19 14:02:55;;;;;;;2.13;1.00;;;12.90;97.30;;;;;;4887390;29;20182;-90
2023/11/19 14:05:21;;;;;;;3.00;2.80;;;12.80;97.30;;;;;;4882607;29;20535;-90
2023/11/19 14:07:50;;;;;;;11.23;4.33;;;12.70;97.30;;;;;;4899217;29;20189;-90
2023/11/19 14:10:15;;;;;;;1.10;1.00;;;12.60;97.30;;;;;;4882097;29;20185;-90
2023/11/19 14:12:41;;;;;;;4.50;2.70;;;12.50;97.30;;;;;;4898632;29;20853;-90
2023/11/19 14:15:16;;;;;;;1.90;1.77;;;12.60;97.30;;;;;;4885246;29;20520;-90
2023/11/19 14:17:43;;;;;;;25.53;1.77;;;12.60;97.30;;;;;;4880830;29;20652;-90
2023/11/19 14:20:17;;;;;;;9.53;1.50;;;12.60;97.30;;;;;;4891058;29;20421;-90
2023/11/19 14:22:44;;;;;;;9.53;1.10;;;12.50;97.30;;;;;;4897023;29;20445;-90
2023/11/19 14:25:11;;;;;;;4.77;2.50;;;12.50;97.30;;;;;;4898593;29;20417;-90
2023/11/19 14:27:37;;;;;;;1.10;1.00;;;12.40;97.30;;;;;;4883274;29;20429;-90
2023/11/19 14:30:08;;;;;;;4.23;1.97;;;12.40;97.30;;;;;;4891580;29;20505;-90
2023/11/19 14:32:35;;;;;;;1.70;1.60;;;12.30;97.30;;;;;;4880873;29;20980;-91
2023/11/19 14:35:01;;;;;;;5.17;2.17;;;12.20;97.30;;;;;;4883761;29;20437;-90
2023/11/19 14:37:26;;;;;;;11.80;3.37;;;12.10;97.30;;;;;;4880945;29;20476;-89
2023/11/19 14:39:52;;;;;;;3.00;2.47;;;12.10;97.30;;;;;;4897174;29;20178;-90
2023/11/19 14:42:18;;;;;;;1.57;1.47;;;12.00;97.30;;;;;;4889454;29;20577;-90
2023/11/19 14:44:43;;;;;;;4.20;1.67;;;12.00;97.30;;;;;;4897488;29;20252;-90
2023/11/19 14:47:10;;;;;;;2.20;2.00;;;11.90;97.30;;;;;;4880684;29;20241;-90
2023/11/19 14:49:36;;;;;;;1.43;1.37;;;11.90;97.30;;;;;;4891289;29;20558;-89
2023/11/19 14:52:03;;;;;;;2.17;2.00;;;11.90;97.30;;;;;;4886930;29;20458;-90
2023/11/19 14:54:28;;;;;;;1.00;0.90;;;11.90;97.30;;;;;;4897384;29;20513;-89
2023/11/19 14:56:54;;;;;;;1.77;1.67;;;12.00;97.30;;;;;;4884109;29;20862;-90
2023/11/19 14:59:19;;;;;;;1.50;1.40;;;12.00;97.30;;;;;;4895536;29;20200;-89
2023/11/19 15:01:46;;;;;;;1.63;1.40;;;11.90;97.30;;;;;;4880804;29;20315;-90
2023/11/19 15:04:11;;;;;;;1.40;1.30;;;11.90;97.30;;;;;;4885662;29;20185;-89
2023/11/19 15:06:37;;;;;;;1.30;1.20;;;11.90;97.30;;;;;;4882941;29;20530;-89
2023/11/19 15:09:04;;;;;;;1.20;1.10;;;11.90;97.30;;;;;;4880022;29;20291;-90
2023/11/19 15:11:29;;;;;;;2.80;2.60;;;11.90;97.30;;;;;;4880054;29;20220;-89
2023/11/19 15:13:55;;;;;;;1.70;1.13;;;11.90;97.30;;;;;;4896732;29;20422;-89
2023/11/19 15:16:32;;;;;;;1.90;1.77;;;11.90;97.30;;;;;;4883855;29;20688;-90
2023/11/19 15:19:03;;;;;;;12.47;1.90;;;11.90;97.30;;;;;;4874450;29;21021;-90
2023/11/19 15:21:29;;;;;;;1.90;0.93;;;11.80;97.30;;;;;;4883017;29;20445;-90
2023/11/19 15:23:55;;;;;;;1.40;1.30;;;11.80;97.30;;;;;;4890745;29;20421;-89
2023/11/19 15:26:21;;;;;;;1.50;1.40;;;11.80;97.30;;;;;;4896871;29;20177;-89
2023/11/19 15:28:47;;;;;;;12.63;2.30;;;11.80;97.30;;;;;;4883126;29;20681;-89
2023/11/19 15:31:14;;;;;;;1.53;1.43;;;11.80;97.30;;;;;;4883078;29;20216;-89
2023/11/19 15:33:40;;;;;;;1.27;1.17;;;11.80;97.30;;;;;;4885483;29;20204;-89
2023/11/19 15:36:07;;;;;;;1.23;1.13;;;11.80;97.30;;;;;;4885688;29;20433;-89
2023/11/19 15:38:36;;;;;;;10.40;2.27;;;11.70;97.30;;;;;;4880957;29;20250;-90
2023/11/19 15:41:05;;;;;;;1.73;1.30;;;11.70;97.30;;;;;;4884562;29;20479;-90
2023/11/19 15:43:30;;;;;;;1.17;1.07;;;11.70;97.30;;;;;;4883758;29;20433;-90
2023/11/19 15:45:56;;;;;;;10.13;1.63;;;11.70;97.30;;;;;;4881213;29;20573;-89
2023/11/19 15:48:22;;;;;;;1.17;1.07;;;11.70;97.30;;;;;;4896238;29;20216;-90
2023/11/19 15:50:47;;;;;;;1.43;1.33;;;11.70;97.30;;;;;;4879170;29;20964;-90
2023/11/19 15:53:13;;;;;;;2.17;1.00;;;11.70;97.30;;;;;;4883452;29;20193;-90
2023/11/19 15:55:38;;;;;;;1.43;1.27;;;11.70;97.30;;;;;;4879072;29;20583;-90
2023/11/19 15:58:04;;;;;;;1.23;1.20;;;11.70;97.30;;;;;;4885690;29;20211;-90
2023/11/19 16:00:31;;;;;;;1.00;0.90;;;11.60;97.30;;;;;;4895751;29;20189;-90
2023/11/19 16:02:57;;;;;;;1.83;1.73;;;11.60;97.30;;;;;;4895959;29;20188;-90
2023/11/19 16:05:23;;;;;;;2.20;1.00;;;11.60;97.30;;;;;;4881882;29;20838;-90
2023/11/19 16:07:50;;;;;;;8.73;2.40;;;11.60;97.30;;;;;;4892758;29;20672;-90
2023/11/19 16:10:19;;;;;;;2.50;1.43;;;11.60;97.30;;;;;;4895940;29;20421;-90
2023/11/19 16:12:45;;;;;;;1.90;1.80;;;11.60;97.30;;;;;;4879118;29;20449;-90
2023/11/19 16:15:11;;;;;;;1.97;1.87;;;11.70;97.30;;;;;;4880622;29;20452;-89
2023/11/19 16:17:38;;;;;;;1.57;1.47;;;11.70;97.30;;;;;;4878973;29;20837;-90
2023/11/19 16:20:07;;;;;;;4.00;2.70;;;11.70;97.30;;;;;;4895334;29;20173;-90
2023/11/19 16:22:33;;;;;;;3.50;1.77;;;11.70;97.30;;;;;;4884005;29;20466;-90
2023/11/19 16:24:59;;;;;;;8.23;1.20;;;11.70;97.30;;;;;;4878718;29;20437;-90
2023/11/19 16:27:24;;;;;;;2.83;1.13;;;11.60;97.30;;;;;;4881363;29;20185;-91
2023/11/19 16:29:50;;;;;;;0.90;0.80;;;11.60;97.30;;;;;;4879549;29;20192;-89
2023/11/19 16:32:16;;;;;;;1.77;1.67;;;11.50;97.30;;;;;;4895560;29;20260;-90
2023/11/19 16:34:42;;;;;;;3.67;1.73;;;11.50;97.30;;;;;;4884675;29;20189;-89
2023/11/19 16:37:11;;;;;;;1.27;1.23;;;11.50;97.30;;;;;;4885161;29;21003;-90
2023/11/19 16:39:37;;;;;;;1.20;1.10;;;11.50;97.30;;;;;;4878895;29;20430;-89
2023/11/19 16:42:03;;;;;;;1.00;0.90;;;11.50;97.30;;;;;;4876860;29;20909;-89
2023/11/19 16:44:28;;;;;;;0.90;0.80;;;11.60;97.30;;;;;;4901682;29;20417;-89
2023/11/19 16:46:54;;;;;;;1.73;1.60;;;11.60;97.30;;;;;;4886542;29;20178;-88
2023/11/19 16:49:19;;;;;;;2.40;1.37;;;11.60;97.30;;;;;;4877073;29;20178;-89
2023/11/19 16:51:46;;;;;;;1.70;1.60;;;11.50;97.30;;;;;;4881368;29;20680;-88
2023/11/19 16:54:12;;;;;;;12.93;2.53;;;11.50;97.30;;;;;;4884258;29;20633;-93
2023/11/19 16:56:40;;;;;;;1.17;1.07;;;11.50;97.30;;;;;;4880889;29;20429;-89
2023/11/19 16:59:06;;;;;;;1.83;1.73;;;11.50;97.30;;;;;;4879432;29;20231;-89
2023/11/19 17:01:31;;;;;;;1.67;1.60;;;11.50;97.30;;;;;;4880806;29;20469;-90
2023/11/19 17:03:58;;;;;;;8.10;2.83;;;11.50;97.30;;;;;;4884244;29;20443;-88
2023/11/19 17:06:23;;;;;;;1.63;1.10;;;11.50;97.30;;;;;;4883214;29;20263;-89
2023/11/19 17:08:49;;;;;;;1.63;1.53;;;11.50;97.30;;;;;;4882934;29;20565;-87
2023/11/19 17:11:14;;;;;;;3.10;1.57;;;11.40;97.30;;;;;;4881666;29;20220;-88
2023/11/19 17:13:40;;;;;;;3.80;1.67;;;11.40;97.30;;;;;;4882332;29;20930;-89
2023/11/19 17:16:07;;;;;;;1.50;1.40;;;11.40;97.30;;;;;;4893757;29;20277;-88
2023/11/19 17:18:33;;;;;;;2.87;1.80;;;11.40;97.30;;;;;;4897178;29;20205;-87
2023/11/19 17:21:00;;;;;;;2.73;1.90;;;11.40;97.30;;;;;;4882623;29;20984;-88
2023/11/19 17:23:26;;;;;;;6.67;1.93;;;11.40;97.30;;;;;;4882133;29;20528;-91
2023/11/19 17:25:53;;;;;;;2.60;1.90;;;11.40;97.30;;;;;;4875308;29;20489;-91
2023/11/19 17:28:18;;;;;;;5.50;2.17;;;11.40;97.30;;;;;;4881473;29;20488;-91
2023/11/19 17:30:44;;;;;;;1.20;1.10;;;11.40;97.30;;;;;;4886337;29;20449;-90
2023/11/19 17:33:10;;;;;;;2.40;1.63;;;11.30;97.30;;;;;;4882112;29;20272;-90
2023/11/19 17:35:36;;;;;;;9.70;1.63;;;11.70;97.30;;;;;;4898655;29;20213;-90
2023/11/19 17:38:02;;;;;;;1.50;1.40;;;11.60;97.30;;;;;;4889540;29;20584;-92
2023/11/19 17:40:27;;;;;;;1.10;1.00;;;11.50;97.30;;;;;;4892283;29;20509;-91
2023/11/19 17:42:53;;;;;;;3.83;1.33;;;11.40;97.30;;;;;;4883083;29;20975;-89
2023/11/19 17:45:19;;;;;;;1.27;1.17;;;11.30;97.30;;;;;;4881400;29;20178;-91
2023/11/19 17:47:45;;;;;;;1.03;0.93;;;11.30;97.30;;;;;;4885641;29;20436;-90
2023/11/19 17:50:11;;;;;;;2.80;1.33;;;11.20;97.30;;;;;;4879871;29;20193;-90
2023/11/19 17:52:37;;;;;;;1.33;1.23;;;11.20;97.30;;;;;;4880948;29;20243;-90